Time;durP1;ratioP1;P1;durP2;ratioP2;P2;SDS_P1;SDS_P2;PMS_P1;PMS_P2;Temp;Humidity;BMP_temperature;BMP_pressure;BME280_temperature;BME280_humidity;BME280_pressure;Samples;Min_cycle;Max_cycle;Signal;HPM_P1;HPM_P2
2022/07/14 00:00:46;;;;;;;10.02;2.40;;;15.70;99.90;;;;;;5062543;28;36928;-60
2022/07/14 00:03:15;;;;;;;11.00;2.97;;;15.70;99.90;;;;;;5066974;28;38461;-61
2022/07/14 00:05:42;;;;;;;9.23;2.50;;;15.70;99.90;;;;;;5065416;28;37946;-60
2022/07/14 00:08:10;;;;;;;11.63;2.55;;;15.60;99.90;;;;;;5067258;28;36314;-60
2022/07/14 00:10:37;;;;;;;11.85;2.53;;;15.60;99.90;;;;;;5065271;28;37836;-60
2022/07/14 00:13:04;;;;;;;14.65;2.83;;;15.60;99.90;;;;;;5065448;28;37647;-60
2022/07/14 00:15:32;;;;;;;11.95;2.63;;;15.60;99.90;;;;;;5065300;28;37654;-59
2022/07/14 00:17:59;;;;;;;11.38;2.65;;;15.70;99.90;;;;;;5065375;28;37554;-60
2022/07/14 00:20:31;;;;;;;8.40;2.95;;;15.60;99.90;;;;;;5064134;28;36632;-60
2022/07/14 00:22:59;;;;;;;8.48;2.42;;;15.60;99.90;;;;;;5066536;28;38775;-60
2022/07/14 00:25:26;;;;;;;6.78;2.13;;;15.60;99.90;;;;;;5064316;28;36624;-60
2022/07/14 00:27:54;;;;;;;9.65;2.17;;;15.60;99.90;;;;;;5066158;28;38235;-61
2022/07/14 00:30:21;;;;;;;9.38;2.53;;;15.60;99.90;;;;;;5065867;28;37178;-60
2022/07/14 00:32:49;;;;;;;9.73;2.38;;;15.60;99.90;;;;;;5066692;28;38062;-60
2022/07/14 00:35:16;;;;;;;10.27;2.40;;;15.60;99.90;;;;;;5064896;28;37699;-60
2022/07/14 00:37:46;;;;;;;13.55;2.92;;;15.50;99.90;;;;;;5066715;28;38385;-60
2022/07/14 00:40:14;;;;;;;10.43;2.70;;;15.60;99.90;;;;;;5066538;28;37260;-60
2022/07/14 00:42:45;;;;;;;10.30;2.30;;;15.50;99.90;;;;;;5066452;28;38218;-60
2022/07/14 00:45:15;;;;;;;9.50;2.92;;;15.50;99.90;;;;;;5064517;28;39471;-60
2022/07/14 00:47:43;;;;;;;9.77;2.33;;;15.50;99.90;;;;;;5064520;28;36753;-59
2022/07/14 00:50:12;;;;;;;12.05;2.33;;;15.60;99.90;;;;;;5064362;28;38101;-60
2022/07/14 00:52:40;;;;;;;8.07;2.25;;;15.60;99.90;;;;;;5064685;28;36313;-60
2022/07/14 00:55:10;;;;;;;9.18;2.13;;;15.60;99.90;;;;;;5062539;28;36734;-60
2022/07/14 00:57:37;;;;;;;10.70;2.08;;;15.60;99.90;;;;;;5065989;28;37661;-59
2022/07/14 01:00:07;;;;;;;10.20;2.78;;;15.60;99.90;;;;;;5065879;28;35375;-60
2022/07/14 01:02:34;;;;;;;8.23;1.98;;;15.60;99.90;;;;;;5064472;28;38759;-59
2022/07/14 01:05:01;;;;;;;11.73;2.58;;;15.60;99.90;;;;;;5064713;28;36480;-60
2022/07/14 01:07:29;;;;;;;9.63;2.42;;;15.60;99.90;;;;;;5065033;28;37650;-59
2022/07/14 01:09:56;;;;;;;12.15;3.10;;;15.60;99.90;;;;;;5064649;28;36530;-60
2022/07/14 01:12:26;;;;;;;12.32;2.63;;;15.60;99.90;;;;;;5065070;28;38673;-60
2022/07/14 01:14:53;;;;;;;9.43;2.53;;;15.60;99.90;;;;;;5063990;28;37412;-60
2022/07/14 01:17:20;;;;;;;10.48;2.85;;;15.60;99.90;;;;;;5064005;28;37753;-59
2022/07/14 01:19:48;;;;;;;9.38;2.20;;;15.60;99.90;;;;;;5065193;28;37392;-60
2022/07/14 01:22:17;;;;;;;10.45;2.58;;;15.60;99.90;;;;;;5064574;28;36311;-60
2022/07/14 01:24:44;;;;;;;10.02;2.17;;;15.60;99.90;;;;;;5065426;28;37691;-60
2022/07/14 01:27:12;;;;;;;8.20;2.10;;;15.60;99.90;;;;;;5064062;28;36178;-60
2022/07/14 01:29:40;;;;;;;10.77;3.03;;;15.60;99.90;;;;;;5065146;28;37573;-59
2022/07/14 01:32:07;;;;;;;8.73;2.50;;;15.60;99.90;;;;;;5064021;28;39011;-60
2022/07/14 01:34:35;;;;;;;9.55;2.08;;;15.60;99.90;;;;;;5064683;28;37530;-60
2022/07/14 01:37:02;;;;;;;10.45;2.83;;;15.50;99.90;;;;;;5064217;28;36656;-60
2022/07/14 01:39:31;;;;;;;10.32;2.60;;;15.50;99.90;;;;;;5064997;28;36743;-60
2022/07/14 01:41:58;;;;;;;7.40;2.08;;;15.40;99.90;;;;;;5065309;28;38113;-59
2022/07/14 01:44:25;;;;;;;9.52;2.30;;;15.40;99.90;;;;;;5063919;28;37503;-60
2022/07/14 01:46:52;;;;;;;7.65;2.00;;;15.30;99.90;;;;;;5062608;28;37654;-59
2022/07/14 01:49:20;;;;;;;6.63;2.03;;;15.40;99.90;;;;;;5064521;28;36485;-60
2022/07/14 01:51:47;;;;;;;9.88;2.70;;;15.30;99.90;;;;;;5064151;28;36979;-59
2022/07/14 01:54:14;;;;;;;8.05;2.30;;;15.20;99.90;;;;;;5062724;28;37721;-60
2022/07/14 01:56:43;;;;;;;10.25;2.08;;;15.20;99.90;;;;;;5064438;28;36038;-60
2022/07/14 01:59:10;;;;;;;6.50;2.00;;;15.20;99.90;;;;;;5064236;28;36600;-59
2022/07/14 02:01:40;;;;;;;10.43;2.30;;;15.20;99.90;;;;;;5063415;28;37828;-60
2022/07/14 02:04:12;;;;;;;12.15;3.00;;;15.10;99.90;;;;;;5064109;28;38491;-60
2022/07/14 02:06:43;;;;;;;9.48;2.00;;;15.10;99.90;;;;;;5064137;28;37790;-60
2022/07/14 02:09:11;;;;;;;8.88;1.98;;;15.10;99.90;;;;;;5065540;28;36159;-59
2022/07/14 02:14:24;;;;;;;9.45;2.63;;;15.00;99.90;;;;;;5054072;28;36552;-60
2022/07/14 02:16:52;;;;;;;8.70;2.53;;;15.00;99.90;;;;;;5063746;28;37840;-59
2022/07/14 02:19:20;;;;;;;7.10;1.90;;;14.90;99.90;;;;;;5064670;28;36359;-59
2022/07/14 02:21:48;;;;;;;11.50;3.05;;;14.90;99.90;;;;;;5064665;28;38014;-59
2022/07/14 02:24:15;;;;;;;10.77;2.30;;;14.90;99.90;;;;;;5063740;28;38354;-60
2022/07/14 02:26:43;;;;;;;7.80;2.35;;;14.90;99.90;;;;;;5064013;28;38214;-60
2022/07/14 02:29:11;;;;;;;10.02;2.42;;;14.90;99.90;;;;;;5064283;28;35445;-60
2022/07/14 02:31:39;;;;;;;8.90;1.75;;;14.90;99.90;;;;;;5064506;28;37909;-60
2022/07/14 02:34:07;;;;;;;11.88;2.35;;;14.90;99.90;;;;;;5063086;28;38912;-59
2022/07/14 02:36:34;;;;;;;7.28;1.90;;;14.90;99.90;;;;;;5064001;28;37640;-59
2022/07/14 02:39:01;;;;;;;7.80;2.42;;;14.90;99.90;;;;;;5064278;28;36411;-59
2022/07/14 02:41:29;;;;;;;9.70;2.63;;;14.90;99.90;;;;;;5064815;28;38731;-59
2022/07/14 02:43:56;;;;;;;7.43;2.90;;;14.90;99.90;;;;;;5062633;28;38563;-60
2022/07/14 02:46:23;;;;;;;9.88;2.00;;;14.90;99.90;;;;;;5062099;28;37292;-59
2022/07/14 02:48:52;;;;;;;7.88;2.05;;;14.90;99.90;;;;;;5065170;28;36924;-59
2022/07/14 02:51:19;;;;;;;8.73;2.55;;;14.80;99.90;;;;;;5062503;28;37609;-59
2022/07/14 02:53:47;;;;;;;7.88;1.83;;;14.80;99.90;;;;;;5064095;28;37952;-59
2022/07/14 02:56:14;;;;;;;8.68;2.25;;;14.80;99.90;;;;;;5062991;28;37494;-59
2022/07/14 02:58:41;;;;;;;10.75;2.58;;;14.80;99.90;;;;;;5062126;28;36564;-59
2022/07/14 03:01:10;;;;;;;8.35;2.00;;;14.80;99.90;;;;;;5063312;28;37228;-59
2022/07/14 03:03:37;;;;;;;7.85;2.28;;;14.80;99.90;;;;;;5064540;28;37468;-59
2022/07/14 03:06:10;;;;;;;12.15;2.20;;;14.80;99.90;;;;;;5061758;28;37712;-59
2022/07/14 03:08:38;;;;;;;14.68;2.30;;;14.70;99.90;;;;;;5063480;28;36825;-60
2022/07/14 03:11:07;;;;;;;11.00;3.00;;;14.70;99.90;;;;;;5063040;28;37452;-59
2022/07/14 03:13:35;;;;;;;8.80;2.08;;;14.70;99.90;;;;;;5063159;28;37532;-59
2022/07/14 03:16:03;;;;;;;13.52;2.42;;;14.70;99.90;;;;;;5061869;28;36193;-60
2022/07/14 03:18:31;;;;;;;6.22;1.92;;;14.60;99.90;;;;;;5062273;28;35171;-59
2022/07/14 03:20:58;;;;;;;8.20;1.90;;;14.60;99.90;;;;;;5062049;28;38943;-59
2022/07/14 03:23:27;;;;;;;7.03;2.30;;;14.50;99.90;;;;;;5062586;28;37747;-59
2022/07/14 03:25:54;;;;;;;7.72;1.90;;;14.50;99.90;;;;;;5061114;28;38491;-59
2022/07/14 03:28:21;;;;;;;10.43;2.35;;;14.50;99.90;;;;;;5063286;28;37152;-59
2022/07/14 03:30:55;;;;;;;7.50;2.08;;;14.50;99.90;;;;;;5062815;28;37867;-59
2022/07/14 03:33:22;;;;;;;7.97;2.15;;;14.50;99.90;;;;;;5063627;28;37675;-59
2022/07/14 03:35:50;;;;;;;7.47;2.30;;;14.50;99.90;;;;;;5062799;28;39661;-59
2022/07/14 03:38:18;;;;;;;6.40;1.98;;;14.50;99.90;;;;;;5065939;28;37652;-59
2022/07/14 03:40:47;;;;;;;10.45;2.03;;;14.40;99.90;;;;;;5066940;28;38462;-59
2022/07/14 03:43:14;;;;;;;9.35;1.98;;;14.40;99.90;;;;;;5066421;28;38634;-59
2022/07/14 03:45:41;;;;;;;5.82;1.90;;;14.40;99.90;;;;;;5064711;27;38411;-59
2022/07/14 03:48:09;;;;;;;8.90;2.08;;;14.30;99.90;;;;;;5065680;28;36008;-59
2022/07/14 03:50:36;;;;;;;9.68;2.42;;;14.30;99.90;;;;;;5064677;28;38516;-59
2022/07/14 03:53:05;;;;;;;10.15;2.10;;;14.30;99.90;;;;;;5066379;28;37538;-59
2022/07/14 03:55:32;;;;;;;7.63;1.73;;;14.30;99.90;;;;;;5065705;28;37134;-60
2022/07/14 03:58:01;;;;;;;9.25;2.63;;;14.40;99.90;;;;;;5067113;28;36009;-59
2022/07/14 04:00:29;;;;;;;8.98;2.13;;;14.40;99.90;;;;;;5067470;28;37233;-59
2022/07/14 04:02:56;;;;;;;6.88;1.90;;;14.40;99.90;;;;;;5065766;28;37789;-59
2022/07/14 04:05:23;;;;;;;9.25;2.00;;;14.40;99.90;;;;;;5065683;28;38373;-59
2022/07/14 04:07:51;;;;;;;5.80;1.98;;;14.40;99.90;;;;;;5067022;28;35924;-60
2022/07/14 04:10:18;;;;;;;10.60;2.08;;;14.60;99.90;;;;;;5066345;28;37622;-59
2022/07/14 04:12:46;;;;;;;7.75;2.05;;;14.60;99.90;;;;;;5066101;28;37496;-59
2022/07/14 04:15:15;;;;;;;7.40;1.80;;;14.70;99.90;;;;;;5065902;28;38025;-59
2022/07/14 04:17:42;;;;;;;8.07;2.03;;;14.70;99.90;;;;;;5065369;28;37144;-59
2022/07/14 04:20:11;;;;;;;8.90;1.95;;;14.80;99.90;;;;;;5066220;28;37636;-59
2022/07/14 04:22:38;;;;;;;7.07;1.75;;;14.80;99.90;;;;;;5067050;28;37837;-59
2022/07/14 04:25:06;;;;;;;7.93;1.63;;;14.90;99.90;;;;;;5065312;28;37749;-59
2022/07/14 04:27:33;;;;;;;6.22;1.85;;;15.10;99.90;;;;;;5066805;28;35408;-59
2022/07/14 04:30:01;;;;;;;7.63;1.50;;;15.20;99.90;;;;;;5065695;28;38913;-59
2022/07/14 04:32:29;;;;;;;6.72;1.58;;;15.30;99.90;;;;;;5064998;28;38929;-59
2022/07/14 04:34:56;;;;;;;10.60;1.85;;;15.40;99.90;;;;;;5064480;28;37266;-59
2022/07/14 04:37:24;;;;;;;7.88;2.13;;;15.40;99.90;;;;;;5065043;28;35185;-59
2022/07/14 04:39:51;;;;;;;7.75;1.67;;;15.50;99.90;;;;;;5065765;28;37691;-59
2022/07/14 04:42:18;;;;;;;7.78;1.73;;;15.60;99.90;;;;;;5065482;28;37706;-60
2022/07/14 04:44:46;;;;;;;6.82;1.67;;;15.70;99.90;;;;;;5064288;28;36804;-59
2022/07/14 04:47:14;;;;;;;6.80;1.67;;;15.80;99.90;;;;;;5064509;28;36381;-59
2022/07/14 04:52:27;;;;;;;5.47;1.65;;;16.00;99.90;;;;;;5065801;28;37950;-59
2022/07/14 04:54:55;;;;;;;6.75;1.75;;;16.10;99.90;;;;;;5064653;28;38243;-59
2022/07/14 04:57:22;;;;;;;5.47;1.60;;;16.20;99.90;;;;;;5065492;28;37952;-59
2022/07/14 04:59:50;;;;;;;7.25;1.85;;;16.30;99.90;;;;;;5065952;28;36234;-59
2022/07/14 05:02:17;;;;;;;8.50;2.05;;;16.40;99.90;;;;;;5066554;28;39783;-59
2022/07/14 05:04:46;;;;;;;7.22;1.80;;;16.50;99.90;;;;;;5065123;28;37782;-60
2022/07/14 05:07:13;;;;;;;6.03;1.42;;;16.60;99.90;;;;;;5065669;28;37625;-60
2022/07/14 05:09:40;;;;;;;9.20;2.10;;;16.60;99.90;;;;;;5066011;28;36160;-59
2022/07/14 05:12:09;;;;;;;7.45;1.80;;;16.70;99.90;;;;;;5065427;28;37670;-59
2022/07/14 05:14:37;;;;;;;9.63;1.90;;;16.80;99.90;;;;;;5064386;28;38305;-59
2022/07/14 05:17:04;;;;;;;8.23;1.80;;;17.00;99.90;;;;;;5065304;28;37429;-59
2022/07/14 05:19:31;;;;;;;8.90;1.67;;;17.10;99.90;;;;;;5065423;28;39380;-59
2022/07/14 05:22:00;;;;;;;9.27;2.20;;;17.20;99.90;;;;;;5065035;28;38355;-59
2022/07/14 05:24:27;;;;;;;5.47;1.52;;;17.30;99.90;;;;;;5056179;28;37826;-59
2022/07/14 05:26:56;;;;;;;10.70;2.17;;;17.40;99.90;;;;;;5065432;28;37791;-59
2022/07/14 05:29:23;;;;;;;5.30;1.35;;;17.40;99.90;;;;;;5063747;28;38409;-59
2022/07/14 05:31:51;;;;;;;6.53;1.60;;;17.50;99.90;;;;;;5063617;28;37820;-59
2022/07/14 05:34:18;;;;;;;8.43;1.55;;;17.60;99.90;;;;;;5062825;28;38555;-59
2022/07/14 05:36:45;;;;;;;9.70;2.35;;;17.70;99.90;;;;;;5065534;28;37510;-59
2022/07/14 05:39:14;;;;;;;8.05;1.45;;;17.70;99.90;;;;;;5064605;28;37315;-59
2022/07/14 05:41:41;;;;;;;6.03;1.33;;;17.70;99.90;;;;;;5064559;28;37946;-59
2022/07/14 05:44:09;;;;;;;8.90;2.08;;;17.80;99.90;;;;;;5062406;28;37039;-58
2022/07/14 05:46:36;;;;;;;7.20;1.90;;;17.90;99.90;;;;;;5063721;28;35526;-59
2022/07/14 05:49:04;;;;;;;4.50;1.30;;;18.00;99.90;;;;;;5063129;28;36237;-59
2022/07/14 05:51:31;;;;;;;5.60;1.42;;;18.10;99.90;;;;;;5063762;28;39571;-59
2022/07/14 05:53:59;;;;;;;8.98;1.70;;;18.10;99.90;;;;;;5060876;28;38303;-59
2022/07/14 05:56:28;;;;;;;8.48;2.20;;;18.20;99.90;;;;;;5063586;28;36675;-60
2022/07/14 05:58:55;;;;;;;7.35;1.73;;;18.20;99.90;;;;;;5061959;28;37416;-59
2022/07/14 06:01:23;;;;;;;7.95;1.25;;;18.30;99.90;;;;;;5063522;28;37691;-59
2022/07/14 06:03:54;;;;;;;7.55;1.45;;;18.40;99.90;;;;;;5062233;28;37437;-59
2022/07/14 06:06:22;;;;;;;7.10;1.70;;;18.40;99.80;;;;;;5064109;28;37396;-59
2022/07/14 06:08:49;;;;;;;8.85;1.70;;;18.50;99.80;;;;;;5064153;28;36059;-59
2022/07/14 06:11:18;;;;;;;5.25;1.50;;;18.60;99.70;;;;;;5063420;28;38175;-59
2022/07/14 06:13:46;;;;;;;4.82;1.27;;;18.60;99.30;;;;;;5060841;28;36780;-59
2022/07/14 06:16:14;;;;;;;6.15;1.00;;;18.70;99.20;;;;;;5062584;28;36142;-60
2022/07/14 06:18:42;;;;;;;4.45;1.10;;;18.70;99.30;;;;;;5062218;28;37814;-60
2022/07/14 06:21:09;;;;;;;5.47;1.23;;;18.80;99.20;;;;;;5062581;28;37722;-60
2022/07/14 06:23:37;;;;;;;5.88;1.48;;;18.80;99.00;;;;;;5061748;28;36097;-60
2022/07/14 06:26:09;;;;;;;6.10;0.98;;;18.90;98.90;;;;;;5061883;28;36934;-60
2022/07/14 06:28:37;;;;;;;6.78;1.30;;;19.00;98.90;;;;;;5061151;28;38420;-61
2022/07/14 06:31:06;;;;;;;8.10;1.40;;;19.00;98.80;;;;;;5063943;28;37838;-60
2022/07/14 06:33:33;;;;;;;25.08;2.10;;;19.10;98.80;;;;;;5063783;28;36652;-60
2022/07/14 06:36:01;;;;;;;5.75;1.15;;;19.10;98.40;;;;;;5064329;28;36634;-59
2022/07/14 06:38:28;;;;;;;7.82;1.42;;;19.20;98.50;;;;;;5062269;28;36259;-60
2022/07/14 06:40:55;;;;;;;5.30;0.98;;;19.20;98.20;;;;;;5061782;28;39902;-60
2022/07/14 06:43:23;;;;;;;7.13;1.00;;;19.20;98.20;;;;;;5064087;28;38659;-59
2022/07/14 06:45:51;;;;;;;8.93;1.30;;;19.30;97.90;;;;;;5064488;28;35175;-59
2022/07/14 06:48:22;;;;;;;7.18;1.58;;;19.30;98.00;;;;;;5064393;28;38261;-59
2022/07/14 06:50:50;;;;;;;8.05;1.20;;;19.30;97.80;;;;;;5062065;28;38881;-59
2022/07/14 06:53:17;;;;;;;7.65;1.00;;;19.40;98.00;;;;;;5064201;28;37140;-59
2022/07/14 06:55:45;;;;;;;6.55;1.17;;;19.40;97.80;;;;;;5063797;28;36503;-60
2022/07/14 06:58:12;;;;;;;7.32;1.95;;;19.40;97.90;;;;;;5064302;28;37029;-60
2022/07/14 07:00:40;;;;;;;7.25;1.75;;;19.50;97.80;;;;;;5063931;28;37797;-59
2022/07/14 07:03:11;;;;;;;10.32;1.85;;;19.50;97.50;;;;;;5064271;28;36242;-59
2022/07/14 07:08:25;;;;;;;10.10;1.77;;;19.60;97.40;;;;;;5064900;28;37524;-59
2022/07/14 07:10:55;;;;;;;7.88;1.65;;;19.60;97.30;;;;;;5063035;28;37674;-59
2022/07/14 07:13:22;;;;;;;5.38;1.10;;;19.70;97.10;;;;;;5063448;28;36840;-59
2022/07/14 07:15:50;;;;;;;17.45;2.33;;;19.60;96.50;;;;;;5063897;28;36799;-59
2022/07/14 07:18:17;;;;;;;8.93;1.10;;;19.70;96.70;;;;;;5063906;28;38041;-59
2022/07/14 07:20:46;;;;;;;10.00;1.45;;;19.70;96.10;;;;;;5064298;28;36649;-59
2022/07/14 07:23:13;;;;;;;10.38;1.98;;;19.60;96.10;;;;;;5063713;28;37108;-59
2022/07/14 07:25:40;;;;;;;7.97;1.20;;;19.70;96.70;;;;;;5063929;28;36478;-59
2022/07/14 07:28:08;;;;;;;9.43;1.17;;;19.80;96.60;;;;;;5063196;28;37960;-59
2022/07/14 07:30:35;;;;;;;8.45;1.25;;;19.70;96.30;;;;;;5062744;28;36917;-59
2022/07/14 07:33:02;;;;;;;6.15;1.00;;;19.50;95.70;;;;;;5063509;28;37352;-60
2022/07/14 07:35:30;;;;;;;3.67;0.70;;;19.40;95.80;;;;;;5064115;28;36653;-60
2022/07/14 07:37:59;;;;;;;3.72;0.80;;;19.50;96.10;;;;;;5064240;28;38866;-58
2022/07/14 07:40:27;;;;;;;11.95;1.40;;;19.50;95.60;;;;;;5062776;28;36607;-58
2022/07/14 07:42:55;;;;;;;12.02;1.20;;;19.60;95.80;;;;;;5063908;28;39782;-60
2022/07/14 07:45:22;;;;;;;10.85;1.60;;;19.70;95.70;;;;;;5063559;28;36873;-59
2022/07/14 07:47:51;;;;;;;13.32;1.58;;;19.60;95.80;;;;;;5063755;28;37434;-60
2022/07/14 07:50:19;;;;;;;96.85;9.52;;;19.60;96.00;;;;;;5062555;28;39097;-60
2022/07/14 07:52:46;;;;;;;146.73;14.63;;;19.60;96.10;;;;;;5062647;28;39457;-59
2022/07/14 07:55:15;;;;;;;52.65;6.80;;;19.50;95.60;;;;;;5063870;28;37511;-60
2022/07/14 07:57:43;;;;;;;90.82;9.57;;;19.50;96.30;;;;;;5063188;28;36930;-59
2022/07/14 08:00:11;;;;;;;79.60;8.00;;;19.50;96.00;;;;;;5063511;28;38766;-61
2022/07/14 08:02:45;;;;;;;101.75;11.23;;;19.60;95.60;;;;;;5062914;28;37508;-60
2022/07/14 08:05:13;;;;;;;16.35;1.90;;;19.60;95.40;;;;;;5063640;28;37580;-61
2022/07/14 08:07:40;;;;;;;26.38;2.85;;;19.70;95.40;;;;;;5063480;28;37263;-61
2022/07/14 08:10:08;;;;;;;9.52;1.10;;;19.80;95.30;;;;;;5063765;28;38591;-61
2022/07/14 08:12:38;;;;;;;8.57;1.00;;;19.80;94.90;;;;;;5063855;28;37394;-61
2022/07/14 08:15:06;;;;;;;4.28;0.88;;;19.90;94.70;;;;;;5063115;28;35329;-60
2022/07/14 08:17:34;;;;;;;4.35;1.05;;;19.80;94.60;;;;;;5063505;28;37255;-60
2022/07/14 08:20:02;;;;;;;2.50;0.57;;;19.90;95.10;;;;;;5062662;28;38030;-60
2022/07/14 08:22:30;;;;;;;2.92;0.85;;;19.90;95.10;;;;;;5064084;28;37771;-61
2022/07/14 08:24:58;;;;;;;5.40;1.10;;;19.80;94.80;;;;;;5066657;28;37468;-61
2022/07/14 08:27:26;;;;;;;12.05;1.48;;;19.80;94.90;;;;;;5067428;28;38938;-61
2022/07/14 08:29:55;;;;;;;15.38;1.88;;;19.90;95.20;;;;;;5065605;28;37719;-61
2022/07/14 08:32:38;;;;;;;9.50;1.13;;;20.00;95.20;;;;;;5066978;28;38293;-61
2022/07/14 08:35:08;;;;;;;6.30;0.95;;;19.90;94.60;;;;;;5066492;28;35296;-61
2022/07/14 08:37:36;;;;;;;4.25;0.75;;;19.90;94.90;;;;;;5065855;28;38128;-60
2022/07/14 08:40:06;;;;;;;11.23;0.98;;;20.00;95.30;;;;;;5065721;28;38603;-61
2022/07/14 08:42:33;;;;;;;4.68;0.77;;;19.90;94.90;;;;;;5064763;28;36168;-60
2022/07/14 08:45:08;;;;;;;8.68;1.00;;;19.90;95.20;;;;;;5066509;28;37601;-60
2022/07/14 08:47:36;;;;;;;9.82;1.55;;;20.00;94.60;;;;;;5066221;28;37714;-61
2022/07/14 08:50:04;;;;;;;10.38;1.15;;;19.90;94.70;;;;;;5066379;28;37511;-59
2022/07/14 08:52:32;;;;;;;4.38;0.50;;;19.90;94.70;;;;;;5065643;28;37498;-60
2022/07/14 08:55:00;;;;;;;3.47;0.63;;;19.80;94.70;;;;;;5066361;28;37502;-60
2022/07/14 08:57:28;;;;;;;7.03;1.17;;;19.80;94.70;;;;;;5057999;28;36378;-60
2022/07/14 08:59:56;;;;;;;6.40;1.33;;;19.70;95.00;;;;;;5066582;28;37627;-60
2022/07/14 09:02:24;;;;;;;10.90;1.08;;;19.70;95.40;;;;;;5066083;28;37213;-62
2022/07/14 09:04:52;;;;;;;4.03;0.93;;;19.70;95.80;;;;;;5065737;28;37384;-60
2022/07/14 09:07:31;;;;;;;5.40;0.80;;;19.70;95.90;;;;;;5066235;28;37622;-60
2022/07/14 09:10:03;;;;;;;4.28;0.50;;;19.90;95.90;;;;;;5065286;28;38603;-60
2022/07/14 09:12:31;;;;;;;6.15;1.02;;;20.00;95.80;;;;;;5064690;28;38145;-60
2022/07/14 09:17:53;;;;;;;4.22;0.80;;;20.20;94.80;;;;;;5066715;28;38781;-60
2022/07/14 09:20:21;;;;;;;3.55;0.60;;;20.20;94.60;;;;;;5065356;28;36453;-60
2022/07/14 09:22:53;;;;;;;5.05;1.00;;;20.10;94.80;;;;;;5065599;28;37177;-60
2022/07/14 09:25:21;;;;;;;3.67;0.75;;;20.10;95.10;;;;;;5065167;28;37379;-59
2022/07/14 09:27:49;;;;;;;7.88;0.70;;;20.10;95.40;;;;;;5065689;28;37243;-60
2022/07/14 09:30:17;;;;;;;6.70;1.30;;;20.00;95.00;;;;;;5065966;28;38543;-60
2022/07/14 09:32:50;;;;;;;3.50;0.75;;;20.10;95.30;;;;;;5065939;28;37320;-60
2022/07/14 09:35:21;;;;;;;4.10;0.60;;;20.30;95.20;;;;;;5065260;28;36225;-60
2022/07/14 09:37:49;;;;;;;7.38;1.17;;;20.50;95.50;;;;;;5065834;28;38088;-60
2022/07/14 09:40:25;;;;;;;6.10;0.68;;;20.70;94.90;;;;;;5065350;28;37301;-60
2022/07/14 09:42:57;;;;;;;6.78;1.40;;;20.70;93.80;;;;;;5066019;28;38966;-60
2022/07/14 09:45:27;;;;;;;7.65;1.20;;;20.70;94.00;;;;;;5064921;28;36635;-61
2022/07/14 09:47:58;;;;;;;5.32;0.82;;;20.70;93.80;;;;;;5064750;28;37719;-59
2022/07/14 09:50:44;;;;;;;5.43;1.05;;;20.70;93.70;;;;;;5085301;27;39235;-60
2022/07/14 09:53:16;;;;;;;8.73;1.27;;;20.70;93.30;;;;;;5086985;27;20517;-59
2022/07/14 09:55:46;;;;;;;8.63;1.10;;;20.80;93.90;;;;;;5085205;27;37350;-61
2022/07/14 09:58:13;;;;;;;8.25;1.17;;;20.80;93.40;;;;;;5085494;27;37100;-60
2022/07/14 10:00:43;;;;;;;7.93;0.88;;;20.70;93.60;;;;;;5086068;27;37368;-60
2022/07/14 10:03:11;;;;;;;7.70;1.10;;;20.70;93.50;;;;;;5085653;27;37842;-60
2022/07/14 10:05:40;;;;;;;5.57;0.68;;;20.60;93.50;;;;;;5085430;27;37765;-60
2022/07/14 10:08:08;;;;;;;6.85;0.95;;;20.60;93.30;;;;;;5085855;27;36238;-60
2022/07/14 10:10:36;;;;;;;21.42;1.80;;;20.60;93.90;;;;;;5085507;27;36480;-60
2022/07/14 10:13:05;;;;;;;5.65;1.17;;;20.50;93.90;;;;;;5085246;27;37737;-60
2022/07/14 10:15:33;;;;;;;17.42;1.58;;;20.50;93.80;;;;;;5084560;27;36330;-60
2022/07/14 10:18:03;;;;;;;33.28;17.05;;;20.60;93.90;;;;;;5084985;27;37036;-60
2022/07/14 10:20:33;;;;;;;11.13;2.40;;;20.70;93.70;;;;;;5083875;27;37784;-60
2022/07/14 10:23:03;;;;;;;4.15;1.00;;;20.70;93.80;;;;;;5085293;27;38234;-60
2022/07/14 10:25:31;;;;;;;6.03;1.20;;;20.60;93.70;;;;;;5085211;27;36624;-60
2022/07/14 10:27:59;;;;;;;5.53;1.27;;;20.60;93.10;;;;;;5085151;27;37713;-60
2022/07/14 10:30:37;;;;;;;5.32;1.00;;;20.50;93.10;;;;;;5085006;27;37794;-61
2022/07/14 10:33:10;;;;;;;7.00;0.90;;;20.60;93.40;;;;;;5085014;27;38090;-61
2022/07/14 10:35:57;;;;;;;7.00;1.02;;;20.70;93.50;;;;;;5083946;27;37031;-61
2022/07/14 10:38:45;;;;;;;6.93;0.93;;;20.70;94.20;;;;;;5084325;27;38050;-61
2022/07/14 10:41:25;;;;;;;25.58;1.67;;;20.70;93.90;;;;;;5079549;27;38469;-61
2022/07/14 10:44:05;;;;;;;7.57;0.95;;;20.70;93.90;;;;;;5078598;27;37327;-61
2022/07/14 10:46:37;;;;;;;4.80;1.20;;;20.60;93.50;;;;;;5078651;27;36724;-61
2022/07/14 10:49:07;;;;;;;8.70;1.02;;;20.50;92.90;;;;;;5079740;27;37327;-61
2022/07/14 10:51:46;;;;;;;12.15;2.28;;;20.40;93.20;;;;;;5079886;27;39011;-60
2022/07/14 10:54:16;;;;;;;5.82;1.20;;;20.30;93.10;;;;;;5080684;27;38397;-60
2022/07/14 10:56:45;;;;;;;5.28;1.13;;;20.20;93.40;;;;;;5080476;27;36494;-60
2022/07/14 10:59:32;;;;;;;5.65;0.80;;;20.10;93.80;;;;;;5081203;27;37663;-60
2022/07/14 11:02:42;;;;;;;7.75;1.08;;;20.10;93.70;;;;;;5081000;27;37843;-60
2022/07/14 11:05:14;;;;;;;6.32;0.90;;;20.00;93.80;;;;;;5059765;27;36740;-60
2022/07/14 11:07:55;;;;;;;5.57;0.75;;;20.10;94.10;;;;;;5080790;27;37401;-60
2022/07/14 11:11:01;;;;;;;7.38;1.10;;;20.00;94.10;;;;;;5079909;27;38318;-59
2022/07/14 11:13:30;;;;;;;4.00;0.75;;;19.90;94.10;;;;;;5081114;27;37843;-60
2022/07/14 11:16:02;;;;;;;4.65;0.80;;;19.90;94.70;;;;;;5080223;27;40300;-59
2022/07/14 11:18:34;;;;;;;7.97;0.95;;;19.90;94.60;;;;;;5081123;27;37460;-60
2022/07/14 11:21:06;;;;;;;10.57;0.90;;;19.90;94.20;;;;;;5081051;27;36216;-60
2022/07/14 11:23:36;;;;;;;3.15;0.90;;;20.00;94.10;;;;;;5079737;27;37768;-61
2022/07/14 11:26:06;;;;;;;11.73;1.50;;;20.10;94.00;;;;;;5079276;27;37353;-57
2022/07/14 11:28:42;;;;;;;18.60;1.98;;;20.10;93.90;;;;;;5079918;27;36431;-59
2022/07/14 11:31:12;;;;;;;8.45;1.27;;;20.20;93.50;;;;;;5079243;27;37673;-61
2022/07/14 11:36:24;;;;;;;5.93;0.90;;;20.40;93.40;;;;;;5079567;27;36997;-59
2022/07/14 11:39:11;;;;;;;17.23;1.50;;;20.50;93.40;;;;;;5080570;27;35464;-59
2022/07/14 11:41:43;;;;;;;8.35;0.85;;;20.50;93.60;;;;;;5077565;27;37483;-60
2022/07/14 11:44:49;;;;;;;9.10;1.70;;;20.60;93.20;;;;;;5079230;27;38133;-61
2022/07/14 11:47:18;;;;;;;5.35;0.80;;;20.70;91.60;;;;;;5076649;27;38488;-60
2022/07/14 11:49:54;;;;;;;7.00;0.80;;;20.70;92.10;;;;;;5078848;27;36177;-60
2022/07/14 11:52:29;;;;;;;6.63;1.10;;;20.70;92.30;;;;;;5077305;27;39069;-60
2022/07/14 11:55:02;;;;;;;6.53;0.93;;;20.70;92.90;;;;;;5078525;27;37731;-60
2022/07/14 11:57:30;;;;;;;14.38;1.15;;;20.70;92.70;;;;;;5079113;27;38287;-59
2022/07/14 12:00:06;;;;;;;8.40;0.95;;;20.70;92.80;;;;;;5082478;27;36811;-60
2022/07/14 12:02:35;;;;;;;3.75;0.68;;;20.70;92.80;;;;;;5081821;27;37877;-60
2022/07/14 12:05:02;;;;;;;5.03;0.60;;;20.70;92.70;;;;;;5083393;27;38328;-60
2022/07/14 12:07:44;;;;;;;2.05;0.30;;;20.70;92.50;;;;;;5082571;27;36165;-61
2022/07/14 12:10:13;;;;;;;7.70;1.15;;;20.80;92.20;;;;;;5076566;27;36626;-61
2022/07/14 12:12:43;;;;;;;2.88;0.60;;;20.80;91.90;;;;;;5080303;27;38775;-60
2022/07/14 12:15:21;;;;;;;6.10;0.82;;;20.70;92.00;;;;;;5081278;27;36440;-61
2022/07/14 12:17:50;;;;;;;5.85;0.82;;;20.80;92.10;;;;;;5081743;27;38265;-60
2022/07/14 12:20:17;;;;;;;13.43;1.27;;;20.90;92.40;;;;;;5081330;27;37454;-61
2022/07/14 12:22:45;;;;;;;5.68;0.75;;;20.90;92.00;;;;;;5082355;27;36265;-60
2022/07/14 12:25:26;;;;;;;6.35;1.00;;;21.00;92.10;;;;;;5082431;27;41129;-60
2022/07/14 12:27:53;;;;;;;7.03;0.80;;;21.10;92.60;;;;;;5081805;27;37253;-60
2022/07/14 12:30:22;;;;;;;4.03;0.60;;;21.20;91.60;;;;;;5081335;27;38126;-60
2022/07/14 12:32:53;;;;;;;3.55;0.70;;;21.20;91.20;;;;;;5082825;27;38830;-60
2022/07/14 12:35:21;;;;;;;12.82;1.30;;;21.20;91.40;;;;;;5081401;27;36725;-60
2022/07/14 12:37:49;;;;;;;5.80;1.00;;;21.20;91.60;;;;;;5081727;27;36152;-60
2022/07/14 12:40:17;;;;;;;3.63;0.70;;;21.30;90.70;;;;;;5081817;27;36155;-59
2022/07/14 12:42:45;;;;;;;8.43;1.10;;;21.30;90.30;;;;;;5081870;27;38325;-61
2022/07/14 12:45:15;;;;;;;3.88;0.88;;;21.10;90.00;;;;;;5082408;27;37505;-59
2022/07/14 12:47:50;;;;;;;4.78;0.70;;;21.00;90.00;;;;;;5081377;27;37088;-60
2022/07/14 12:50:22;;;;;;;6.85;0.90;;;20.90;90.00;;;;;;5081313;27;36495;-60
2022/07/14 12:52:50;;;;;;;4.20;0.90;;;20.70;90.30;;;;;;5082010;27;36352;-60
2022/07/14 12:55:36;;;;;;;9.57;1.40;;;20.60;90.40;;;;;;5079239;27;37859;-60
2022/07/14 12:58:05;;;;;;;8.77;1.10;;;20.50;90.70;;;;;;5079969;27;37899;-59
2022/07/14 13:00:34;;;;;;;15.00;1.40;;;20.60;91.30;;;;;;5081212;27;39151;-59
2022/07/14 13:03:11;;;;;;;4.72;0.88;;;20.70;91.50;;;;;;5081333;27;36472;-59
2022/07/14 13:05:44;;;;;;;6.25;0.70;;;20.80;90.80;;;;;;5081289;27;37119;-61
2022/07/14 13:08:30;;;;;;;12.17;0.90;;;20.90;90.30;;;;;;5082283;27;37509;-60